createdAt,value
2018-08-30T00:00:10.490Z,964.23
2018-08-30T00:01:10.443Z,964.26
2018-08-30T00:02:10.508Z,964.29
2018-08-30T00:03:10.357Z,964.31
2018-08-30T00:04:10.312Z,964.31
2018-08-30T00:05:10.267Z,964.33
2018-08-30T00:06:10.222Z,964.30
2018-08-30T00:07:10.215Z,964.31
2018-08-30T00:08:10.133Z,964.33
2018-08-30T00:09:10.085Z,964.31
2018-08-30T00:10:10.043Z,964.35
2018-08-30T00:11:09.997Z,964.33
2018-08-30T00:12:09.984Z,964.33
2018-08-30T00:13:09.947Z,964.33
2018-08-30T00:14:09.862Z,964.32
2018-08-30T00:15:09.825Z,964.36
2018-08-30T00:16:09.775Z,964.34
2018-08-30T00:17:09.727Z,964.37
2018-08-30T00:18:09.715Z,964.39
2018-08-30T00:19:09.642Z,964.43
2018-08-30T00:20:09.619Z,964.42
2018-08-30T00:21:09.552Z,964.38
2018-08-30T00:22:09.504Z,964.40
2018-08-30T00:23:09.458Z,964.38
2018-08-30T00:24:09.413Z,964.39
2018-08-30T00:25:09.416Z,964.41
2018-08-30T00:26:09.325Z,964.34
2018-08-30T00:27:09.277Z,964.39
2018-08-30T00:28:09.235Z,964.38
2018-08-30T00:29:09.191Z,964.40
2018-08-30T00:30:09.176Z,964.35
2018-08-30T00:31:09.099Z,964.36
2018-08-30T00:32:09.055Z,964.35
2018-08-30T00:33:09.007Z,964.38
2018-08-30T00:34:08.973Z,964.36
2018-08-30T00:35:08.962Z,964.35
2018-08-30T00:36:08.879Z,964.34
2018-08-30T00:37:08.828Z,964.38
2018-08-30T00:38:08.784Z,964.36
2018-08-30T00:39:08.737Z,964.35
2018-08-30T00:40:08.725Z,964.35
2018-08-30T00:41:08.687Z,964.36
2018-08-30T00:42:08.605Z,964.33
2018-08-30T00:43:08.561Z,964.38
2018-08-30T00:44:08.512Z,964.34
2018-08-30T00:45:08.468Z,964.35
2018-08-30T00:46:08.453Z,964.34
2018-08-30T00:47:08.409Z,964.38
2018-08-30T00:48:08.336Z,964.38
2018-08-30T00:49:08.293Z,964.35
2018-08-30T00:50:08.282Z,964.38
2018-08-30T00:51:08.202Z,964.33
2018-08-30T00:52:08.153Z,964.40
2018-08-30T00:53:08.107Z,964.40
2018-08-30T00:54:08.094Z,964.39
2018-08-30T00:55:08.018Z,964.39
2018-08-30T00:56:07.971Z,964.38
2018-08-30T00:57:07.928Z,964.40
2018-08-30T00:58:07.880Z,964.37
2018-08-30T00:59:07.876Z,964.41
2018-08-30T01:00:07.792Z,964.38
2018-08-30T01:01:07.750Z,964.43
2018-08-30T01:02:07.704Z,964.45
2018-08-30T01:03:07.657Z,964.49
2018-08-30T01:04:07.650Z,964.44
2018-08-30T01:05:07.565Z,964.46
2018-08-30T01:06:07.521Z,964.48
2018-08-30T01:07:07.476Z,964.47
2018-08-30T01:08:07.434Z,964.47
2018-08-30T01:09:07.416Z,964.50
2018-08-30T01:10:07.339Z,964.48
2018-08-30T01:11:07.296Z,964.48
2018-08-30T01:12:07.250Z,964.44
2018-08-30T01:13:07.238Z,964.47
2018-08-30T01:14:07.158Z,964.47
2018-08-30T01:15:07.146Z,964.52
2018-08-30T01:16:07.069Z,964.49
2018-08-30T01:17:07.023Z,964.51
2018-08-30T01:18:07.020Z,964.57
2018-08-30T01:19:06.939Z,964.61
2018-08-30T01:20:06.886Z,964.58
2018-08-30T01:21:06.840Z,964.57
2018-08-30T01:22:06.796Z,964.57
2018-08-30T01:23:06.795Z,964.61
2018-08-30T01:24:06.707Z,964.63
2018-08-30T01:25:06.661Z,964.60
2018-08-30T01:26:06.615Z,964.66
2018-08-30T01:27:06.571Z,964.66
2018-08-30T01:28:06.560Z,964.67
2018-08-30T01:29:06.477Z,964.72
2018-08-30T01:30:06.465Z,964.70
2018-08-30T01:31:06.388Z,964.71
2018-08-30T01:32:06.344Z,964.71
2018-08-30T01:33:06.297Z,964.72
2018-08-30T01:34:06.252Z,964.76
2018-08-30T01:35:06.239Z,964.77
2018-08-30T01:36:06.162Z,964.81
2018-08-30T01:37:06.115Z,964.81
2018-08-30T01:38:06.072Z,964.80
2018-08-30T01:39:06.057Z,964.80
2018-08-30T01:40:05.983Z,964.84
2018-08-30T01:41:05.940Z,964.82
2018-08-30T01:42:05.888Z,964.82
2018-08-30T01:43:05.847Z,964.87
2018-08-30T01:44:05.830Z,964.91
2018-08-30T01:45:05.751Z,964.94
2018-08-30T01:46:05.707Z,964.95
2018-08-30T01:47:05.660Z,964.93
2018-08-30T01:48:05.615Z,964.95
2018-08-30T01:49:05.600Z,964.97
2018-08-30T01:50:05.526Z,964.91
2018-08-30T01:51:05.477Z,964.95
2018-08-30T01:52:05.433Z,965.03
2018-08-30T01:53:05.387Z,965.00
2018-08-30T01:54:05.383Z,965.06
2018-08-30T01:55:05.297Z,965.02
2018-08-30T01:56:05.252Z,965.04
2018-08-30T01:57:05.206Z,965.07
2018-08-30T01:58:05.161Z,965.04
2018-08-30T01:59:05.160Z,965.07
2018-08-30T02:00:05.068Z,965.07
2018-08-30T02:01:05.023Z,965.07
2018-08-30T02:02:04.979Z,965.06
2018-08-30T02:03:04.932Z,965.05
2018-08-30T02:04:04.916Z,965.09
2018-08-30T02:05:04.840Z,965.09
2018-08-30T02:06:04.826Z,965.09
2018-08-30T02:07:04.750Z,965.13
2018-08-30T02:08:04.705Z,965.15
2018-08-30T02:09:04.659Z,965.16
2018-08-30T02:10:04.611Z,965.14
2018-08-30T02:11:04.596Z,965.17
2018-08-30T02:12:04.524Z,965.18
2018-08-30T02:13:04.474Z,965.23
2018-08-30T02:14:04.431Z,965.14
2018-08-30T02:15:04.414Z,965.13
2018-08-30T02:16:04.337Z,965.16
2018-08-30T02:17:04.291Z,965.09
2018-08-30T02:18:04.243Z,965.13
2018-08-30T02:19:04.199Z,965.12
2018-08-30T02:20:04.185Z,965.12
2018-08-30T02:21:04.108Z,965.15
2018-08-30T02:22:04.065Z,965.12
2018-08-30T02:23:04.016Z,965.11
2018-08-30T02:24:04.004Z,965.22
2018-08-30T02:25:03.943Z,965.16
2018-08-30T02:26:03.890Z,965.15
2018-08-30T02:27:03.837Z,965.22
2018-08-30T02:28:03.830Z,965.28
2018-08-30T02:29:03.737Z,965.29
2018-08-30T02:30:03.740Z,965.26
2018-08-30T02:31:03.649Z,965.25
2018-08-30T02:32:03.612Z,965.30
2018-08-30T02:33:03.555Z,965.23
2018-08-30T02:34:03.511Z,965.29
2018-08-30T02:35:03.495Z,965.22
2018-08-30T02:36:03.419Z,965.19
2018-08-30T02:37:03.373Z,965.20
2018-08-30T02:38:03.326Z,965.25
2018-08-30T02:39:03.279Z,965.20
2018-08-30T02:40:03.275Z,965.25
2018-08-30T02:41:03.191Z,965.21
2018-08-30T02:42:03.142Z,965.30
2018-08-30T02:43:03.095Z,965.29
2018-08-30T02:44:03.049Z,965.29
2018-08-30T02:45:03.029Z,965.30
2018-08-30T02:46:02.958Z,965.29
2018-08-30T02:47:02.909Z,965.29
2018-08-30T02:48:02.865Z,965.30
2018-08-30T02:49:02.893Z,965.33
2018-08-30T02:50:02.801Z,965.31
2018-08-30T02:51:02.726Z,965.33
2018-08-30T02:52:02.711Z,965.25
2018-08-30T02:53:02.650Z,965.29
2018-08-30T02:54:02.588Z,965.34
2018-08-30T02:55:02.541Z,965.35
2018-08-30T02:56:02.495Z,965.28
2018-08-30T02:57:02.480Z,965.32
2018-08-30T02:58:02.403Z,965.34
2018-08-30T02:59:02.356Z,965.32
2018-08-30T03:00:02.312Z,965.34
2018-08-30T03:01:02.265Z,965.36
2018-08-30T03:02:02.245Z,965.33
2018-08-30T03:03:02.170Z,965.36
2018-08-30T03:04:02.125Z,965.41
2018-08-30T03:05:02.077Z,965.38
2018-08-30T03:06:02.040Z,965.37
2018-08-30T03:07:02.007Z,965.45
2018-08-30T03:08:01.938Z,965.38
2018-08-30T03:09:01.889Z,965.38
2018-08-30T03:10:01.844Z,965.37
2018-08-30T03:11:01.846Z,965.38
2018-08-30T03:12:01.754Z,965.42
2018-08-30T03:13:01.705Z,965.45
2018-08-30T03:14:01.660Z,965.44
2018-08-30T03:15:01.613Z,965.43
2018-08-30T03:16:01.607Z,965.47
2018-08-30T03:17:01.519Z,965.48
2018-08-30T03:18:01.470Z,965.48
2018-08-30T03:19:01.427Z,965.42
2018-08-30T03:20:01.384Z,965.49
2018-08-30T03:21:01.368Z,965.48
2018-08-30T03:22:01.285Z,965.47
2018-08-30T03:23:01.242Z,965.49
2018-08-30T03:24:01.193Z,965.46
2018-08-30T03:25:01.280Z,965.44
2018-08-30T03:26:01.099Z,965.47
2018-08-30T03:27:01.053Z,965.50
2018-08-30T03:28:01.008Z,965.49
2018-08-30T03:29:00.959Z,965.51
2018-08-30T03:30:00.958Z,965.50
2018-08-30T03:31:01.002Z,965.49
2018-08-30T03:32:00.822Z,965.52
2018-08-30T03:33:00.774Z,965.53
2018-08-30T03:34:00.726Z,965.52
2018-08-30T03:35:00.724Z,965.49
2018-08-30T03:36:00.634Z,965.49
2018-08-30T03:37:00.584Z,965.56
2018-08-30T03:38:00.540Z,965.56
2018-08-30T03:39:00.497Z,965.59
2018-08-30T03:40:00.481Z,965.50
2018-08-30T03:41:00.398Z,965.55
2018-08-30T03:42:00.384Z,965.59
2018-08-30T03:43:00.310Z,965.56
2018-08-30T03:44:00.257Z,965.54
2018-08-30T03:45:00.210Z,965.56
2018-08-30T03:46:00.164Z,965.57
2018-08-30T03:47:00.232Z,965.65
2018-08-30T03:48:00.074Z,965.60
2018-08-30T03:49:00.026Z,965.61
2018-08-30T03:49:59.980Z,965.64
2018-08-30T03:50:59.933Z,965.67
2018-08-30T03:51:59.924Z,965.67
2018-08-30T03:52:59.838Z,965.61
2018-08-30T03:53:59.788Z,965.64
2018-08-30T03:54:59.789Z,965.63
2018-08-30T03:55:59.702Z,965.63
2018-08-30T03:56:59.687Z,965.64
2018-08-30T03:57:59.638Z,965.66
2018-08-30T03:58:59.573Z,965.66
2018-08-30T03:59:59.515Z,965.65
2018-08-30T04:00:59.460Z,965.65
2018-08-30T04:01:59.414Z,965.65
2018-08-30T04:02:59.397Z,965.70
2018-08-30T04:03:59.324Z,965.64
2018-08-30T04:04:59.280Z,965.59
2018-08-30T04:05:59.228Z,965.64
2018-08-30T04:06:59.176Z,965.59
2018-08-30T04:07:59.178Z,965.60
2018-08-30T04:08:59.082Z,965.67
2018-08-30T04:09:59.035Z,965.60
2018-08-30T04:10:58.988Z,965.67
2018-08-30T04:11:58.940Z,965.67
2018-08-30T04:12:58.939Z,965.62
2018-08-30T04:13:58.850Z,965.66
2018-08-30T04:14:58.802Z,965.66
2018-08-30T04:15:58.754Z,965.69
2018-08-30T04:16:58.704Z,965.64
2018-08-30T04:17:58.699Z,965.66
2018-08-30T04:18:58.612Z,965.66
2018-08-30T04:19:58.566Z,965.71
2018-08-30T04:20:58.515Z,965.70
2018-08-30T04:21:58.508Z,965.68
2018-08-30T04:22:58.456Z,965.68
2018-08-30T04:23:58.398Z,965.68
2018-08-30T04:24:58.325Z,965.75
2018-08-30T04:25:58.280Z,965.72
2018-08-30T04:26:58.266Z,965.76
2018-08-30T04:27:58.185Z,965.71
2018-08-30T04:28:58.159Z,965.75
2018-08-30T04:29:58.089Z,965.72
2018-08-30T04:30:58.075Z,965.71
2018-08-30T04:31:58.004Z,965.74
2018-08-30T04:32:57.948Z,965.77
2018-08-30T04:33:57.901Z,965.83
2018-08-30T04:34:57.854Z,965.84
2018-08-30T04:35:57.837Z,965.81
2018-08-30T04:36:57.757Z,965.83
2018-08-30T04:37:57.712Z,965.85
2018-08-30T04:38:57.688Z,965.88
2018-08-30T04:39:57.620Z,965.90
2018-08-30T04:40:57.594Z,965.92
2018-08-30T04:41:57.519Z,965.85
2018-08-30T04:42:57.474Z,965.86
2018-08-30T04:43:57.430Z,965.92
2018-08-30T04:44:57.378Z,965.93
2018-08-30T04:45:57.356Z,965.96
2018-08-30T04:46:57.284Z,965.97
2018-08-30T04:47:57.269Z,965.94
2018-08-30T04:48:57.187Z,965.94
2018-08-30T04:49:57.148Z,965.96
2018-08-30T04:50:57.093Z,965.95
2018-08-30T04:51:57.081Z,965.98
2018-08-30T04:52:57.029Z,966.02
2018-08-30T04:53:56.952Z,965.95
2018-08-30T04:54:56.932Z,966.03
2018-08-30T04:55:56.854Z,965.98
2018-08-30T04:56:56.808Z,965.99
2018-08-30T04:57:56.757Z,966.01
2018-08-30T04:58:56.744Z,966.00
2018-08-30T04:59:56.664Z,966.02
2018-08-30T05:00:56.618Z,966.02
2018-08-30T05:01:56.567Z,966.03
2018-08-30T05:02:56.554Z,965.99
2018-08-30T05:03:56.473Z,966.09
2018-08-30T05:04:56.424Z,966.11
2018-08-30T05:05:56.400Z,966.11
2018-08-30T05:06:56.369Z,966.08
2018-08-30T05:07:56.284Z,966.08
2018-08-30T05:08:56.265Z,966.10
2018-08-30T05:09:56.227Z,966.11
2018-08-30T05:10:56.139Z,966.15
2018-08-30T05:11:56.093Z,966.17
2018-08-30T05:12:56.042Z,966.15
2018-08-30T05:13:56.026Z,966.22
2018-08-30T05:14:55.982Z,966.21
2018-08-30T05:15:55.899Z,966.21
2018-08-30T05:16:55.852Z,966.23
2018-08-30T05:17:55.811Z,966.19
2018-08-30T05:18:55.811Z,966.22
2018-08-30T05:19:55.705Z,966.23
2018-08-30T05:20:55.659Z,966.20
2018-08-30T05:21:55.613Z,966.19
2018-08-30T05:22:55.596Z,966.19
2018-08-30T05:23:55.559Z,966.20
2018-08-30T05:24:55.471Z,966.24
2018-08-30T05:25:55.420Z,966.27
2018-08-30T05:26:55.374Z,966.30
2018-08-30T05:27:55.326Z,966.29
2018-08-30T05:28:55.320Z,966.29
2018-08-30T05:29:55.304Z,966.34
2018-08-30T05:30:55.182Z,966.37
2018-08-30T05:31:55.132Z,966.39
2018-08-30T05:32:55.084Z,966.34
2018-08-30T05:33:55.078Z,966.37
2018-08-30T05:34:54.990Z,966.41
2018-08-30T05:35:54.944Z,966.41
2018-08-30T05:36:54.897Z,966.37
2018-08-30T05:37:54.846Z,966.39
2018-08-30T05:38:54.837Z,966.47
2018-08-30T05:39:54.749Z,966.42
2018-08-30T05:40:54.702Z,966.49
2018-08-30T05:41:54.656Z,966.47
2018-08-30T05:42:54.604Z,966.48
2018-08-30T05:43:54.598Z,966.52
2018-08-30T05:44:54.510Z,966.49
2018-08-30T05:45:54.467Z,966.53
2018-08-30T05:46:54.415Z,966.48
2018-08-30T05:47:54.367Z,966.49
2018-08-30T05:48:54.356Z,966.54
2018-08-30T05:49:54.271Z,966.60
2018-08-30T05:50:54.223Z,966.54
2018-08-30T05:51:54.172Z,966.62
2018-08-30T05:52:54.128Z,966.57
2018-08-30T05:53:54.111Z,966.63
2018-08-30T05:54:54.030Z,966.59
2018-08-30T05:55:53.981Z,966.63
2018-08-30T05:56:54.007Z,966.61
2018-08-30T05:57:53.886Z,966.61
2018-08-30T05:58:53.837Z,966.60
2018-08-30T05:59:53.824Z,966.61
2018-08-30T06:00:53.742Z,966.67
2018-08-30T06:01:53.698Z,966.63
2018-08-30T06:02:53.675Z,966.64
2018-08-30T06:03:53.602Z,966.65
2018-08-30T06:04:53.551Z,966.64
2018-08-30T06:05:53.509Z,966.59
2018-08-30T06:06:53.456Z,966.63
2018-08-30T06:07:53.441Z,966.66
2018-08-30T06:08:53.358Z,966.65
2018-08-30T06:09:53.346Z,966.66
2018-08-30T06:10:53.262Z,966.68
2018-08-30T06:11:53.219Z,966.65
2018-08-30T06:12:53.171Z,966.66
2018-08-30T06:13:53.122Z,966.70
2018-08-30T06:14:53.112Z,966.72
2018-08-30T06:15:53.033Z,966.68
2018-08-30T06:16:52.973Z,966.68
2018-08-30T06:17:52.925Z,966.74
2018-08-30T06:18:52.881Z,966.71
2018-08-30T06:19:52.856Z,966.70
2018-08-30T06:20:52.815Z,966.73
2018-08-30T06:21:52.737Z,966.78
2018-08-30T06:22:52.683Z,966.80
2018-08-30T06:23:52.641Z,966.82
2018-08-30T06:24:52.589Z,966.90
2018-08-30T06:25:52.588Z,966.82
2018-08-30T06:26:52.539Z,966.83
2018-08-30T06:27:52.452Z,966.90
2018-08-30T06:28:52.396Z,966.86
2018-08-30T06:29:52.349Z,966.93
2018-08-30T06:30:52.338Z,966.89
2018-08-30T06:31:52.255Z,966.91
2018-08-30T06:32:52.250Z,966.96
2018-08-30T06:33:52.160Z,966.98
2018-08-30T06:34:52.230Z,967.02
2018-08-30T06:35:52.100Z,966.99
2018-08-30T06:36:52.026Z,967.00
2018-08-30T06:37:51.966Z,967.01
2018-08-30T06:38:52.049Z,967.01
2018-08-30T06:39:51.872Z,967.07
2018-08-30T06:40:51.857Z,967.02
2018-08-30T06:41:51.805Z,967.04
2018-08-30T06:42:51.728Z,967.03
2018-08-30T06:43:51.679Z,967.06
2018-08-30T06:44:51.654Z,967.06
2018-08-30T06:45:51.585Z,967.07
2018-08-30T06:46:51.566Z,967.10
2018-08-30T06:47:51.492Z,967.05
2018-08-30T06:48:51.477Z,967.07
2018-08-30T06:49:51.392Z,967.08
2018-08-30T06:50:51.342Z,967.11
2018-08-30T06:51:51.336Z,967.12
2018-08-30T06:52:51.249Z,967.13
2018-08-30T06:53:51.199Z,967.14
2018-08-30T06:54:51.152Z,967.16
2018-08-30T06:55:51.109Z,967.18
2018-08-30T06:56:51.097Z,967.17
2018-08-30T06:57:51.010Z,967.20
2018-08-30T06:58:50.959Z,967.24
2018-08-30T06:59:50.913Z,967.25
2018-08-30T07:00:50.862Z,967.23
2018-08-30T07:01:50.852Z,967.23
2018-08-30T07:02:50.769Z,967.29
2018-08-30T07:03:50.751Z,967.27
2018-08-30T07:04:50.674Z,967.26
2018-08-30T07:05:50.623Z,967.29
2018-08-30T07:06:50.576Z,967.36
2018-08-30T07:07:50.530Z,967.29
2018-08-30T07:08:50.520Z,967.35
2018-08-30T07:09:50.440Z,967.36
2018-08-30T07:10:50.390Z,967.39
2018-08-30T07:11:50.342Z,967.41
2018-08-30T07:12:50.288Z,967.44
2018-08-30T07:13:50.284Z,967.43
2018-08-30T07:14:50.204Z,967.48
2018-08-30T07:15:50.146Z,967.48
2018-08-30T07:16:50.099Z,967.47
2018-08-30T07:17:50.051Z,967.51
2018-08-30T07:18:50.078Z,967.56
2018-08-30T07:19:49.962Z,967.55
2018-08-30T07:20:49.906Z,967.58
2018-08-30T07:21:49.857Z,967.57
2018-08-30T07:22:49.849Z,967.60
2018-08-30T07:23:49.764Z,967.68
2018-08-30T07:24:49.754Z,967.68
2018-08-30T07:25:49.701Z,967.69
2018-08-30T07:26:49.621Z,967.70
2018-08-30T07:27:49.619Z,967.70
2018-08-30T07:28:49.529Z,967.74
2018-08-30T07:29:49.508Z,967.76
2018-08-30T07:30:49.430Z,967.75
2018-08-30T07:31:49.407Z,967.75
2018-08-30T07:32:49.337Z,967.80
2018-08-30T07:33:49.310Z,967.78
2018-08-30T07:34:49.392Z,967.77
2018-08-30T07:35:49.196Z,967.81
2018-08-30T07:36:49.141Z,967.83
2018-08-30T07:37:49.098Z,967.83
2018-08-30T07:38:49.053Z,967.84
2018-08-30T07:39:49.056Z,967.86
2018-08-30T07:40:48.953Z,967.84
2018-08-30T07:41:48.902Z,967.88
2018-08-30T07:42:48.893Z,967.91
2018-08-30T07:43:48.809Z,967.92
2018-08-30T07:44:48.759Z,967.97
2018-08-30T07:45:48.718Z,967.97
2018-08-30T07:46:48.665Z,967.95
2018-08-30T07:47:48.649Z,967.93
2018-08-30T07:48:48.568Z,968.00
2018-08-30T07:49:48.525Z,968.03
2018-08-30T07:50:48.547Z,968.05
2018-08-30T07:51:48.427Z,968.06
2018-08-30T07:52:48.409Z,968.07
2018-08-30T07:53:48.329Z,968.11
2018-08-30T07:54:48.285Z,968.11
2018-08-30T07:55:48.254Z,968.13
2018-08-30T07:56:48.188Z,968.22
2018-08-30T07:57:48.172Z,968.23
2018-08-30T07:58:48.093Z,968.25
2018-08-30T07:59:48.047Z,968.27
2018-08-30T08:00:48.002Z,968.26
2018-08-30T08:01:47.949Z,968.27
2018-08-30T08:02:47.937Z,968.30
2018-08-30T08:03:47.853Z,968.30
2018-08-30T08:04:47.823Z,968.34
2018-08-30T08:05:47.760Z,968.34
2018-08-30T08:06:47.736Z,968.34
2018-08-30T08:07:47.673Z,968.35
2018-08-30T08:08:47.615Z,968.35
2018-08-30T08:09:47.601Z,968.35
2018-08-30T08:10:47.520Z,968.31
2018-08-30T08:11:47.500Z,968.34
2018-08-30T08:12:47.554Z,968.39
2018-08-30T08:13:47.380Z,968.39
2018-08-30T08:14:47.362Z,968.38
2018-08-30T08:15:47.285Z,968.41
2018-08-30T08:16:47.268Z,968.45
2018-08-30T08:17:47.198Z,968.47
2018-08-30T08:18:47.142Z,968.46
2018-08-30T08:19:47.095Z,968.44
2018-08-30T08:20:47.047Z,968.48
2018-08-30T08:21:47.106Z,968.48
2018-08-30T08:22:46.956Z,968.49
2018-08-30T08:23:46.908Z,968.48
2018-08-30T08:24:46.887Z,968.54
2018-08-30T08:25:46.835Z,968.56
2018-08-30T08:26:46.765Z,968.61
2018-08-30T08:27:46.716Z,968.58
2018-08-30T08:28:46.840Z,968.57
2018-08-30T08:29:46.620Z,968.62
2018-08-30T08:30:46.574Z,968.62
2018-08-30T08:31:46.660Z,968.61
2018-08-30T08:32:46.477Z,968.64
2018-08-30T08:33:46.431Z,968.65
2018-08-30T08:34:46.386Z,968.64
2018-08-30T08:35:46.338Z,968.66
2018-08-30T08:36:46.330Z,968.68
2018-08-30T08:37:46.245Z,968.67
2018-08-30T08:38:46.197Z,968.71
2018-08-30T08:39:46.185Z,968.69
2018-08-30T08:40:46.143Z,968.69
2018-08-30T08:41:46.083Z,968.69
2018-08-30T08:42:46.009Z,968.72
2018-08-30T08:43:46.021Z,968.71
2018-08-30T08:44:45.955Z,968.76
2018-08-30T08:45:45.930Z,968.72
2018-08-30T08:46:45.819Z,968.77
2018-08-30T08:47:45.874Z,968.80
2018-08-30T08:48:45.769Z,968.78
2018-08-30T08:49:45.711Z,968.77
2018-08-30T08:50:45.630Z,968.80
2018-08-30T08:51:45.582Z,968.84
2018-08-30T08:52:45.536Z,968.88
2018-08-30T08:53:45.665Z,968.86
2018-08-30T08:54:45.484Z,968.89
2018-08-30T08:55:45.409Z,968.90
2018-08-30T08:56:45.349Z,968.87
2018-08-30T08:57:45.303Z,968.86
2018-08-30T08:58:45.360Z,968.84
2018-08-30T08:59:45.248Z,968.88
2018-08-30T09:00:45.164Z,968.88
2018-08-30T09:01:45.114Z,968.87
2018-08-30T09:02:45.067Z,968.88
2018-08-30T09:03:45.081Z,968.83
2018-08-30T09:04:45.007Z,968.83
2018-08-30T09:05:44.954Z,968.87
2018-08-30T09:06:44.879Z,968.87
2018-08-30T09:07:44.930Z,968.85
2018-08-30T09:08:44.786Z,968.86
2018-08-30T09:09:44.801Z,968.89
2018-08-30T09:10:44.721Z,968.87
2018-08-30T09:11:44.647Z,968.90
2018-08-30T09:12:44.635Z,968.93
2018-08-30T09:13:44.553Z,968.90
2018-08-30T09:14:44.508Z,968.93
2018-08-30T09:15:44.485Z,968.95
2018-08-30T09:16:44.414Z,968.95
2018-08-30T09:17:44.389Z,969.01
2018-08-30T09:18:44.320Z,968.99
2018-08-30T09:19:44.274Z,968.98
2018-08-30T09:20:44.269Z,969.00
2018-08-30T09:21:44.184Z,969.00
2018-08-30T09:22:44.135Z,968.97
2018-08-30T09:23:44.092Z,969.02
2018-08-30T09:24:44.041Z,969.02
2018-08-30T09:25:44.029Z,969.05
2018-08-30T09:26:43.977Z,969.06
2018-08-30T09:27:43.904Z,969.05
2018-08-30T09:28:43.857Z,969.09
2018-08-30T09:29:43.810Z,969.09
2018-08-30T09:30:43.793Z,969.08
2018-08-30T09:31:43.717Z,969.07
2018-08-30T09:32:43.678Z,969.07
2018-08-30T09:33:43.663Z,969.09
2018-08-30T09:34:43.607Z,969.10
2018-08-30T09:35:43.529Z,969.09
2018-08-30T09:36:43.525Z,969.09
2018-08-30T09:37:43.437Z,969.14
2018-08-30T09:38:43.394Z,969.13
2018-08-30T09:39:43.345Z,969.12
2018-08-30T09:40:43.299Z,969.14
2018-08-30T09:41:43.282Z,969.11
2018-08-30T09:42:43.208Z,969.13
2018-08-30T09:43:43.179Z,969.16
2018-08-30T09:44:43.115Z,969.14
2018-08-30T09:45:43.066Z,969.14
2018-08-30T09:46:43.062Z,969.13
2018-08-30T09:47:42.975Z,969.16
2018-08-30T09:48:42.928Z,969.16
2018-08-30T09:49:42.945Z,969.17
2018-08-30T09:50:42.834Z,969.17
2018-08-30T09:51:42.819Z,969.20
2018-08-30T09:52:42.743Z,969.22
2018-08-30T09:53:42.693Z,969.23
2018-08-30T09:54:42.651Z,969.23
2018-08-30T09:55:42.665Z,969.27
2018-08-30T09:56:42.605Z,969.25
2018-08-30T09:57:42.607Z,969.27
2018-08-30T09:58:42.468Z,969.27
2018-08-30T09:59:42.416Z,969.31
2018-08-30T10:00:42.371Z,969.34
2018-08-30T10:01:42.330Z,969.37
2018-08-30T10:02:42.302Z,969.39
2018-08-30T10:03:42.296Z,969.42
2018-08-30T10:04:42.247Z,969.43
2018-08-30T10:05:42.161Z,969.41
2018-08-30T10:06:42.091Z,969.39
2018-08-30T10:07:42.067Z,969.42
2018-08-30T10:08:41.997Z,969.40
2018-08-30T10:09:41.952Z,969.42
2018-08-30T10:10:41.946Z,969.44
2018-08-30T10:11:41.857Z,969.43
2018-08-30T10:12:41.813Z,969.44
2018-08-30T10:13:41.771Z,969.38
2018-08-30T10:14:41.719Z,969.39
2018-08-30T10:15:41.706Z,969.41
2018-08-30T10:16:41.626Z,969.42
2018-08-30T10:17:41.584Z,969.42
2018-08-30T10:18:41.532Z,969.42
2018-08-30T10:19:41.488Z,969.40
2018-08-30T10:20:41.473Z,969.43
2018-08-30T10:21:41.395Z,969.45
2018-08-30T10:22:41.348Z,969.50
2018-08-30T10:23:41.304Z,969.45
2018-08-30T10:24:41.297Z,969.48
2018-08-30T10:25:41.224Z,969.46
2018-08-30T10:26:41.164Z,969.49
2018-08-30T10:27:41.119Z,969.53
2018-08-30T10:28:41.071Z,969.51
2018-08-30T10:29:41.057Z,969.53
2018-08-30T10:30:40.979Z,969.58
2018-08-30T10:31:41.032Z,969.54
2018-08-30T10:32:40.889Z,969.56
2018-08-30T10:33:40.843Z,969.59
2018-08-30T10:34:40.834Z,969.57
2018-08-30T10:35:40.753Z,969.54
2018-08-30T10:36:40.706Z,969.54
2018-08-30T10:37:40.666Z,969.55
2018-08-30T10:38:40.614Z,969.59
2018-08-30T10:39:40.594Z,969.57
2018-08-30T10:40:40.522Z,969.59
2018-08-30T10:41:40.479Z,969.54
2018-08-30T10:42:40.433Z,969.54
2018-08-30T10:43:40.415Z,969.51
2018-08-30T10:44:40.375Z,969.53
2018-08-30T10:45:40.298Z,969.52
2018-08-30T10:46:40.286Z,969.46
2018-08-30T10:47:40.207Z,969.48
2018-08-30T10:48:40.162Z,969.46
2018-08-30T10:49:40.196Z,969.46
2018-08-30T10:50:40.108Z,969.45
2018-08-30T10:51:40.032Z,969.50
2018-08-30T10:52:39.983Z,969.46
2018-08-30T10:53:39.938Z,969.56
2018-08-30T10:54:39.891Z,969.54
2018-08-30T10:55:39.876Z,969.54
2018-08-30T10:56:39.801Z,969.55
2018-08-30T10:57:39.790Z,969.56
2018-08-30T10:58:39.716Z,969.54
2018-08-30T10:59:39.670Z,969.57
2018-08-30T11:00:39.621Z,969.57
2018-08-30T11:01:39.576Z,969.57
2018-08-30T11:02:39.562Z,969.58
2018-08-30T11:03:39.487Z,969.61
2018-08-30T11:04:40.042Z,969.55
2018-08-30T11:05:39.396Z,969.53
2018-08-30T11:06:39.350Z,969.48
2018-08-30T11:07:39.345Z,969.57
2018-08-30T11:08:39.266Z,969.54
2018-08-30T11:09:39.217Z,969.51
2018-08-30T11:10:39.172Z,969.51
2018-08-30T11:11:39.126Z,969.56
2018-08-30T11:12:39.114Z,969.50
2018-08-30T11:13:39.037Z,969.52
2018-08-30T11:14:38.989Z,969.50
2018-08-30T11:15:38.943Z,969.53
2018-08-30T11:16:38.899Z,969.51
2018-08-30T11:17:38.877Z,969.54
2018-08-30T11:18:38.814Z,969.53
2018-08-30T11:19:38.793Z,969.49
2018-08-30T11:20:38.719Z,969.54
2018-08-30T11:21:38.673Z,969.60
2018-08-30T11:22:38.631Z,969.58
2018-08-30T11:23:38.626Z,969.62
2018-08-30T11:24:38.537Z,969.70
2018-08-30T11:25:38.519Z,969.63
2018-08-30T11:26:38.443Z,969.65
2018-08-30T11:27:38.400Z,969.63
2018-08-30T11:28:38.385Z,969.62
2018-08-30T11:29:38.312Z,969.62
2018-08-30T11:30:38.294Z,969.62
2018-08-30T11:31:38.243Z,969.61
2018-08-30T11:32:38.173Z,969.62
2018-08-30T11:33:38.136Z,969.59
2018-08-30T11:34:38.105Z,969.57
2018-08-30T11:35:38.068Z,969.60
2018-08-30T11:36:38.013Z,969.64
2018-08-30T11:37:37.987Z,969.64
2018-08-30T11:38:37.901Z,969.70
2018-08-30T11:39:37.861Z,969.69
2018-08-30T11:40:37.852Z,969.75
2018-08-30T11:41:37.907Z,969.75
2018-08-30T11:42:37.722Z,969.75
2018-08-30T11:43:37.682Z,969.81
2018-08-30T11:44:37.631Z,969.78
2018-08-30T11:45:37.623Z,969.80
2018-08-30T11:46:37.571Z,969.82
2018-08-30T11:47:37.498Z,969.79
2018-08-30T11:48:37.452Z,969.82
2018-08-30T11:49:37.409Z,969.80
2018-08-30T11:50:37.417Z,969.74
2018-08-30T11:51:37.351Z,969.73
2018-08-30T11:52:37.294Z,969.73
2018-08-30T11:53:37.228Z,969.74
2018-08-30T11:54:37.188Z,969.82
2018-08-30T11:55:37.171Z,969.85
2018-08-30T11:56:37.144Z,969.89
2018-08-30T11:57:37.057Z,969.85
2018-08-30T11:58:37.012Z,969.79
2018-08-30T11:59:36.969Z,969.86
2018-08-30T12:00:36.966Z,969.83
2018-08-30T12:01:36.926Z,969.81
2018-08-30T12:02:36.843Z,969.88
2018-08-30T12:03:36.804Z,969.88
2018-08-30T12:04:36.755Z,969.85
2018-08-30T12:05:36.711Z,969.84
2018-08-30T12:06:36.709Z,969.83
2018-08-30T12:07:36.661Z,969.83
2018-08-30T12:08:36.618Z,969.87
2018-08-30T12:09:36.553Z,969.80
2018-08-30T12:10:36.556Z,969.75
2018-08-30T12:11:36.606Z,969.77
2018-08-30T12:12:36.426Z,969.87
2018-08-30T12:13:36.444Z,969.82
2018-08-30T12:14:36.376Z,969.82
2018-08-30T12:15:36.312Z,969.82
2018-08-30T12:16:36.274Z,969.85
2018-08-30T12:17:36.210Z,969.87
2018-08-30T12:18:36.231Z,969.91
2018-08-30T12:19:36.133Z,969.84
2018-08-30T12:20:36.165Z,969.83
2018-08-30T12:21:36.081Z,969.82
2018-08-30T12:22:36.012Z,969.74
2018-08-30T12:23:35.994Z,969.75
2018-08-30T12:24:35.916Z,969.76
2018-08-30T12:25:35.912Z,969.78
2018-08-30T12:26:35.845Z,969.78
2018-08-30T12:27:35.796Z,969.79